sensor_id;sensor_type;location;lat;lon;timestamp;temperature;humidity
9668;DHT22;4872;48.316;10.650;2023-04-30T04:06:28;11.10;99.90
9668;DHT22;4872;48.316;10.650;2023-04-30T04:08:54;11.10;99.90
9668;DHT22;4872;48.316;10.650;2023-04-30T04:11:21;11.10;99.90
9668;DHT22;4872;48.316;10.650;2023-04-30T04:13:48;11.00;99.90
9668;DHT22;4872;48.316;10.650;2023-04-30T04:16:15;11.10;99.90
9668;DHT22;4872;48.316;10.650;2023-04-30T04:18:42;11.10;99.90
9668;DHT22;4872;48.316;10.650;2023-04-30T04:21:08;11.60;99.90
9668;DHT22;4872;48.316;10.650;2023-04-30T04:23:37;11.20;99.90
9668;DHT22;4872;48.316;10.650;2023-04-30T04:26:04;11.80;99.90
9668;DHT22;4872;48.316;10.650;2023-04-30T04:28:31;11.10;99.90
9668;DHT22;4872;48.316;10.650;2023-04-30T04:30:58;11.10;99.90
9668;DHT22;4872;48.316;10.650;2023-04-30T04:33:25;11.00;99.90
9668;DHT22;4872;48.316;10.650;2023-04-30T04:35:52;11.00;99.90
9668;DHT22;4872;48.316;10.650;2023-04-30T04:38:19;11.00;99.90
9668;DHT22;4872;48.316;10.650;2023-04-30T04:40:51;11.00;99.90
9668;DHT22;4872;48.316;10.650;2023-04-30T04:43:18;11.00;99.90
9668;DHT22;4872;48.316;10.650;2023-04-30T04:45:45;11.00;99.90
9668;DHT22;4872;48.316;10.650;2023-04-30T04:48:12;11.40;99.90
9668;DHT22;4872;48.316;10.650;2023-04-30T04:50:39;10.90;99.90
9668;DHT22;4872;48.316;10.650;2023-04-30T04:53:06;10.90;99.90
9668;DHT22;4872;48.316;10.650;2023-04-30T04:55:33;11.00;99.90
9668;DHT22;4872;48.316;10.650;2023-04-30T04:58:01;11.10;99.90
9668;DHT22;4872;48.316;10.650;2023-04-30T05:00:28;11.10;99.90
9668;DHT22;4872;48.316;10.650;2023-04-30T05:02:55;11.00;99.90
9668;DHT22;4872;48.316;10.650;2023-04-30T05:05:22;11.20;99.90
9668;DHT22;4872;48.316;10.650;2023-04-30T05:07:48;11.20;99.90
9668;DHT22;4872;48.316;10.650;2023-04-30T05:10:16;11.80;99.90
9668;DHT22;4872;48.316;10.650;2023-04-30T05:12:43;11.10;99.90
9668;DHT22;4872;48.316;10.650;2023-04-30T05:15:11;11.40;99.90
9668;DHT22;4872;48.316;10.650;2023-04-30T05:17:38;11.20;99.90
9668;DHT22;4872;48.316;10.650;2023-04-30T05:20:06;11.10;99.90
9668;DHT22;4872;48.316;10.650;2023-04-30T05:22:33;11.20;99.90
9668;DHT22;4872;48.316;10.650;2023-04-30T05:25:00;11.20;99.90
9668;DHT22;4872;48.316;10.650;2023-04-30T05:27:27;11.40;99.90
9668;DHT22;4872;48.316;10.650;2023-04-30T05:29:53;11.30;99.90
9668;DHT22;4872;48.316;10.650;2023-04-30T05:32:22;11.40;99.90
9668;DHT22;4872;48.316;10.650;2023-04-30T05:34:49;11.60;99.90
9668;DHT22;4872;48.316;10.650;2023-04-30T05:37:16;12.40;99.90
9668;DHT22;4872;48.316;10.650;2023-04-30T05:39:45;11.50;99.90
9668;DHT22;4872;48.316;10.650;2023-04-30T05:42:11;11.50;99.90
9668;DHT22;4872;48.316;10.650;2023-04-30T05:44:38;11.50;99.90
9668;DHT22;4872;48.316;10.650;2023-04-30T05:47:05;11.50;99.90
9668;DHT22;4872;48.316;10.650;2023-04-30T05:49:33;11.60;99.90
9668;DHT22;4872;48.316;10.650;2023-04-30T05:52:00;11.60;99.90
9668;DHT22;4872;48.316;10.650;2023-04-30T05:54:28;11.60;99.90
9668;DHT22;4872;48.316;10.650;2023-04-30T05:56:55;11.70;99.90
9668;DHT22;4872;48.316;10.650;2023-04-30T05:59:22;11.80;99.90
9668;DHT22;4872;48.316;10.650;2023-04-30T06:01:48;11.70;99.90
9668;DHT22;4872;48.316;10.650;2023-04-30T06:04:15;12.10;99.90
9668;DHT22;4872;48.316;10.650;2023-04-30T06:06:43;11.70;99.90
9668;DHT22;4872;48.316;10.650;2023-04-30T06:09:10;12.30;99.90
9668;DHT22;4872;48.316;10.650;2023-04-30T06:11:37;11.70;99.90
9668;DHT22;4872;48.316;10.650;2023-04-30T06:14:04;11.70;99.90
9668;DHT22;4872;48.316;10.650;2023-04-30T06:16:30;12.30;99.90
9668;DHT22;4872;48.316;10.650;2023-04-30T06:18:57;11.80;99.90
9668;DHT22;4872;48.316;10.650;2023-04-30T06:21:24;11.80;99.90
9668;DHT22;4872;48.316;10.650;2023-04-30T06:23:52;12.00;99.90
9668;DHT22;4872;48.316;10.650;2023-04-30T06:26:19;12.30;99.90
9668;DHT22;4872;48.316;10.650;2023-04-30T06:28:45;12.90;99.90
9668;DHT22;4872;48.316;10.650;2023-04-30T06:31:12;12.10;99.90
9668;DHT22;4872;48.316;10.650;2023-04-30T06:33:39;13.00;99.90
9668;DHT22;4872;48.316;10.650;2023-04-30T06:36:06;12.20;99.90
9668;DHT22;4872;48.316;10.650;2023-04-30T06:38:33;12.10;99.90
9668;DHT22;4872;48.316;10.650;2023-04-30T06:41:01;12.30;99.90
9668;DHT22;4872;48.316;10.650;2023-04-30T06:43:28;12.70;99.90
9668;DHT22;4872;48.316;10.650;2023-04-30T06:45:54;12.80;99.90
9668;DHT22;4872;48.316;10.650;2023-04-30T06:48:21;12.70;99.90
9668;DHT22;4872;48.316;10.650;2023-04-30T06:50:48;13.10;99.90
9668;DHT22;4872;48.316;10.650;2023-04-30T06:53:15;12.60;99.90
9668;DHT22;4872;48.316;10.650;2023-04-30T06:55:43;12.70;99.70
9668;DHT22;4872;48.316;10.650;2023-04-30T06:58:11;12.80;99.70
9668;DHT22;4872;48.316;10.650;2023-04-30T07:00:38;13.50;99.90
9668;DHT22;4872;48.316;10.650;2023-04-30T07:03:04;12.80;99.60
9668;DHT22;4872;48.316;10.650;2023-04-30T07:05:32;12.90;99.70
9668;DHT22;4872;48.316;10.650;2023-04-30T07:08:00;13.00;99.90
9668;DHT22;4872;48.316;10.650;2023-04-30T07:10:28;12.90;99.90
9668;DHT22;4872;48.316;10.650;2023-04-30T07:12:54;13.00;99.90
9668;DHT22;4872;48.316;10.650;2023-04-30T07:15:23;13.00;99.80
9668;DHT22;4872;48.316;10.650;2023-04-30T07:17:49;13.10;99.90
9668;DHT22;4872;48.316;10.650;2023-04-30T07:20:16;13.60;99.90
9668;DHT22;4872;48.316;10.650;2023-04-30T07:22:43;13.40;99.90
9668;DHT22;4872;48.316;10.650;2023-04-30T07:25:10;13.40;99.70
9668;DHT22;4872;48.316;10.650;2023-04-30T07:27:37;13.90;99.50
9668;DHT22;4872;48.316;10.650;2023-04-30T07:30:05;13.50;99.00
9668;DHT22;4872;48.316;10.650;2023-04-30T07:32:35;13.50;98.90
9668;DHT22;4872;48.316;10.650;2023-04-30T07:35:02;13.70;99.00
9668;DHT22;4872;48.316;10.650;2023-04-30T07:37:29;13.60;99.00
9668;DHT22;4872;48.316;10.650;2023-04-30T07:39:55;13.70;98.70
9668;DHT22;4872;48.316;10.650;2023-04-30T07:42:22;13.60;98.50
9668;DHT22;4872;48.316;10.650;2023-04-30T07:44:49;13.60;98.70
9668;DHT22;4872;48.316;10.650;2023-04-30T07:47:17;13.70;98.90
9668;DHT22;4872;48.316;10.650;2023-04-30T07:49:46;13.70;99.10
9668;DHT22;4872;48.316;10.650;2023-04-30T07:52:12;13.80;99.00
9668;DHT22;4872;48.316;10.650;2023-04-30T07:54:39;14.00;99.00
9668;DHT22;4872;48.316;10.650;2023-04-30T07:57:06;14.10;98.60
9668;DHT22;4872;48.316;10.650;2023-04-30T07:59:33;14.10;98.10
9668;DHT22;4872;48.316;10.650;2023-04-30T08:02:00;14.30;98.40
9668;DHT22;4872;48.316;10.650;2023-04-30T08:04:27;14.30;98.30
9668;DHT22;4872;48.316;10.650;2023-04-30T08:06:55;14.60;98.40
9668;DHT22;4872;48.316;10.650;2023-04-30T08:09:22;14.60;98.30
9668;DHT22;4872;48.316;10.650;2023-04-30T08:11:48;14.70;98.30
9668;DHT22;4872;48.316;10.650;2023-04-30T08:14:15;14.80;97.90
9668;DHT22;4872;48.316;10.650;2023-04-30T08:16:42;14.70;97.80
9668;DHT22;4872;48.316;10.650;2023-04-30T08:19:09;14.90;98.00
9668;DHT22;4872;48.316;10.650;2023-04-30T08:21:36;14.80;97.50
9668;DHT22;4872;48.316;10.650;2023-04-30T08:24:04;14.80;97.10
9668;DHT22;4872;48.316;10.650;2023-04-30T08:26:31;14.90;96.90
9668;DHT22;4872;48.316;10.650;2023-04-30T08:28:58;14.70;97.10
9668;DHT22;4872;48.316;10.650;2023-04-30T08:31:25;14.50;96.90
9668;DHT22;4872;48.316;10.650;2023-04-30T08:33:51;14.70;97.30
9668;DHT22;4872;48.316;10.650;2023-04-30T08:36:18;14.80;97.20
9668;DHT22;4872;48.316;10.650;2023-04-30T08:38:45;14.70;96.50
9668;DHT22;4872;48.316;10.650;2023-04-30T08:41:13;14.70;96.00
9668;DHT22;4872;48.316;10.650;2023-04-30T08:43:42;14.70;95.90
9668;DHT22;4872;48.316;10.650;2023-04-30T08:46:10;14.60;95.90
9668;DHT22;4872;48.316;10.650;2023-04-30T08:48:39;14.70;96.60
9668;DHT22;4872;48.316;10.650;2023-04-30T08:51:06;14.60;96.60
9668;DHT22;4872;48.316;10.650;2023-04-30T08:53:34;14.80;96.60
9668;DHT22;4872;48.316;10.650;2023-04-30T08:56:02;15.30;96.30
9668;DHT22;4872;48.316;10.650;2023-04-30T08:58:30;15.00;95.50
9668;DHT22;4872;48.316;10.650;2023-04-30T09:00:57;14.90;95.50
9668;DHT22;4872;48.316;10.650;2023-04-30T09:03:25;15.10;95.60
9668;DHT22;4872;48.316;10.650;2023-04-30T09:05:53;15.00;94.40
9668;DHT22;4872;48.316;10.650;2023-04-30T09:08:40;15.10;94.60
9668;DHT22;4872;48.316;10.650;2023-04-30T09:11:20;14.80;94.80
9668;DHT22;4872;48.316;10.650;2023-04-30T09:13:50;15.00;95.00
9668;DHT22;4872;48.316;10.650;2023-04-30T09:16:18;15.00;95.00
9668;DHT22;4872;48.316;10.650;2023-04-30T09:18:45;15.40;94.80
9668;DHT22;4872;48.316;10.650;2023-04-30T09:21:13;14.90;94.50
9668;DHT22;4872;48.316;10.650;2023-04-30T09:24:01;15.10;94.70
9668;DHT22;4872;48.316;10.650;2023-04-30T09:26:31;15.10;95.10
9668;DHT22;4872;48.316;10.650;2023-04-30T09:29:00;15.20;95.10
9668;DHT22;4872;48.316;10.650;2023-04-30T09:31:33;15.40;94.90
9668;DHT22;4872;48.316;10.650;2023-04-30T09:34:00;15.50;94.50
9668;DHT22;4872;48.316;10.650;2023-04-30T09:36:27;15.50;94.40
9668;DHT22;4872;48.316;10.650;2023-04-30T09:38:54;15.50;94.40
9668;DHT22;4872;48.316;10.650;2023-04-30T09:41:23;15.40;94.00
9668;DHT22;4872;48.316;10.650;2023-04-30T09:43:50;15.60;94.40
9668;DHT22;4872;48.316;10.650;2023-04-30T09:46:19;15.60;94.80
9668;DHT22;4872;48.316;10.650;2023-04-30T09:48:55;15.70;94.90
9668;DHT22;4872;48.316;10.650;2023-04-30T09:51:22;15.80;94.70
9668;DHT22;4872;48.316;10.650;2023-04-30T09:53:50;15.80;93.80
9668;DHT22;4872;48.316;10.650;2023-04-30T09:56:19;15.90;94.00
9668;DHT22;4872;48.316;10.650;2023-04-30T09:58:49;15.80;93.90
9668;DHT22;4872;48.316;10.650;2023-04-30T10:01:17;16.00;94.30
9668;DHT22;4872;48.316;10.650;2023-04-30T10:03:45;15.90;93.70
9668;DHT22;4872;48.316;10.650;2023-04-30T10:06:13;15.90;93.20
9668;DHT22;4872;48.316;10.650;2023-04-30T10:08:42;16.00;92.80
9668;DHT22;4872;48.316;10.650;2023-04-30T10:11:12;15.90;92.60
9668;DHT22;4872;48.316;10.650;2023-04-30T10:13:44;15.90;92.70
9668;DHT22;4872;48.316;10.650;2023-04-30T10:16:19;15.90;92.60
9668;DHT22;4872;48.316;10.650;2023-04-30T10:18:51;15.80;92.80
9668;DHT22;4872;48.316;10.650;2023-04-30T10:21:21;15.90;92.80
9668;DHT22;4872;48.316;10.650;2023-04-30T10:23:48;15.80;93.20
9668;DHT22;4872;48.316;10.650;2023-04-30T10:26:16;16.00;92.50
9668;DHT22;4872;48.316;10.650;2023-04-30T10:28:43;15.90;92.60
9668;DHT22;4872;48.316;10.650;2023-04-30T10:31:11;15.80;92.10
9668;DHT22;4872;48.316;10.650;2023-04-30T10:33:43;15.80;91.80
9668;DHT22;4872;48.316;10.650;2023-04-30T10:36:23;15.70;91.90
9668;DHT22;4872;48.316;10.650;2023-04-30T10:38:51;15.70;92.20
9668;DHT22;4872;48.316;10.650;2023-04-30T10:41:19;15.80;92.10
9668;DHT22;4872;48.316;10.650;2023-04-30T10:43:46;15.80;92.70
9668;DHT22;4872;48.316;10.650;2023-04-30T10:46:21;16.00;92.20
9668;DHT22;4872;48.316;10.650;2023-04-30T10:48:48;16.00;92.60
9668;DHT22;4872;48.316;10.650;2023-04-30T10:51:16;15.90;91.30
9668;DHT22;4872;48.316;10.650;2023-04-30T10:53:43;16.00;91.60
9668;DHT22;4872;48.316;10.650;2023-04-30T10:56:11;15.90;91.70
9668;DHT22;4872;48.316;10.650;2023-04-30T10:58:38;16.00;91.90
9668;DHT22;4872;48.316;10.650;2023-04-30T11:01:07;16.00;91.80
9668;DHT22;4872;48.316;10.650;2023-04-30T11:03:36;16.10;92.30
9668;DHT22;4872;48.316;10.650;2023-04-30T11:06:11;16.10;92.20
9668;DHT22;4872;48.316;10.650;2023-04-30T11:08:42;16.20;92.00
9668;DHT22;4872;48.316;10.650;2023-04-30T11:11:10;16.20;92.20
9668;DHT22;4872;48.316;10.650;2023-04-30T11:13:40;16.20;92.40
9668;DHT22;4872;48.316;10.650;2023-04-30T11:16:07;16.40;92.10
9668;DHT22;4872;48.316;10.650;2023-04-30T11:18:40;16.50;92.00
9668;DHT22;4872;48.316;10.650;2023-04-30T11:21:08;16.70;91.70
9668;DHT22;4872;48.316;10.650;2023-04-30T11:23:35;16.80;92.20
9668;DHT22;4872;48.316;10.650;2023-04-30T11:26:03;16.90;91.10
9668;DHT22;4872;48.316;10.650;2023-04-30T11:28:33;17.00;90.90
9668;DHT22;4872;48.316;10.650;2023-04-30T11:31:00;17.20;91.30
9668;DHT22;4872;48.316;10.650;2023-04-30T11:33:29;17.30;91.50
9668;DHT22;4872;48.316;10.650;2023-04-30T11:35:58;17.40;90.90
9668;DHT22;4872;48.316;10.650;2023-04-30T11:38:26;17.60;90.30
9668;DHT22;4872;48.316;10.650;2023-04-30T11:40:53;17.40;89.60
9668;DHT22;4872;48.316;10.650;2023-04-30T11:43:22;17.60;89.50
9668;DHT22;4872;48.316;10.650;2023-04-30T11:46:05;17.50;89.10
9668;DHT22;4872;48.316;10.650;2023-04-30T11:48:33;17.50;88.50
9668;DHT22;4872;48.316;10.650;2023-04-30T11:51:02;17.40;89.50
9668;DHT22;4872;48.316;10.650;2023-04-30T11:53:30;17.50;89.90
9668;DHT22;4872;48.316;10.650;2023-04-30T11:56:01;17.40;87.80
9668;DHT22;4872;48.316;10.650;2023-04-30T11:58:34;17.40;87.00
9668;DHT22;4872;48.316;10.650;2023-04-30T12:01:02;17.50;87.60
9668;DHT22;4872;48.316;10.650;2023-04-30T12:03:29;17.50;87.20
9668;DHT22;4872;48.316;10.650;2023-04-30T12:05:56;17.50;86.50
9668;DHT22;4872;48.316;10.650;2023-04-30T12:08:23;17.40;85.90
9668;DHT22;4872;48.316;10.650;2023-04-30T12:10:50;17.50;87.80
9668;DHT22;4872;48.316;10.650;2023-04-30T12:13:16;17.60;87.10
9668;DHT22;4872;48.316;10.650;2023-04-30T12:15:56;17.80;87.80
9668;DHT22;4872;48.316;10.650;2023-04-30T12:18:23;17.80;87.00
9668;DHT22;4872;48.316;10.650;2023-04-30T12:20:51;18.00;86.50
9668;DHT22;4872;48.316;10.650;2023-04-30T12:23:18;18.10;85.70
9668;DHT22;4872;48.316;10.650;2023-04-30T12:25:45;18.20;86.10
9668;DHT22;4872;48.316;10.650;2023-04-30T12:28:12;18.30;86.60
9668;DHT22;4872;48.316;10.650;2023-04-30T12:30:41;18.40;87.60
9668;DHT22;4872;48.316;10.650;2023-04-30T12:33:10;18.60;86.90
9668;DHT22;4872;48.316;10.650;2023-04-30T12:35:41;18.70;86.30
9668;DHT22;4872;48.316;10.650;2023-04-30T12:38:08;18.80;85.30
9668;DHT22;4872;48.316;10.650;2023-04-30T12:40:35;18.90;85.40
9668;DHT22;4872;48.316;10.650;2023-04-30T12:43:05;18.90;84.80
9668;DHT22;4872;48.316;10.650;2023-04-30T12:45:42;18.90;85.70
9668;DHT22;4872;48.316;10.650;2023-04-30T12:48:11;18.90;85.90
9668;DHT22;4872;48.316;10.650;2023-04-30T12:50:38;19.10;87.20
9668;DHT22;4872;48.316;10.650;2023-04-30T12:53:05;19.40;86.00
9668;DHT22;4872;48.316;10.650;2023-04-30T12:55:33;19.60;86.70
9668;DHT22;4872;48.316;10.650;2023-04-30T12:58:06;19.90;84.60
9668;DHT22;4872;48.316;10.650;2023-04-30T13:00:47;20.00;82.20
9668;DHT22;4872;48.316;10.650;2023-04-30T13:03:16;20.10;81.80
9668;DHT22;4872;48.316;10.650;2023-04-30T13:05:46;20.20;83.00
9668;DHT22;4872;48.316;10.650;2023-04-30T13:08:14;20.40;83.40
9668;DHT22;4872;48.316;10.650;2023-04-30T13:10:41;20.40;81.70
9668;DHT22;4872;48.316;10.650;2023-04-30T13:13:08;20.20;81.20
9668;DHT22;4872;48.316;10.650;2023-04-30T13:15:35;19.80;78.30
9668;DHT22;4872;48.316;10.650;2023-04-30T13:18:02;19.50;79.60
9668;DHT22;4872;48.316;10.650;2023-04-30T13:20:30;19.30;80.10
9668;DHT22;4872;48.316;10.650;2023-04-30T13:22:57;19.20;80.70
9668;DHT22;4872;48.316;10.650;2023-04-30T13:25:24;19.10;80.50
9668;DHT22;4872;48.316;10.650;2023-04-30T13:27:51;19.00;79.60
9668;DHT22;4872;48.316;10.650;2023-04-30T13:30:17;18.90;81.20
9668;DHT22;4872;48.316;10.650;2023-04-30T13:32:44;18.80;80.10
9668;DHT22;4872;48.316;10.650;2023-04-30T13:35:11;18.80;81.20
9668;DHT22;4872;48.316;10.650;2023-04-30T13:37:39;18.90;80.90
9668;DHT22;4872;48.316;10.650;2023-04-30T13:40:07;19.10;82.00
9668;DHT22;4872;48.316;10.650;2023-04-30T13:42:36;19.30;80.30
9668;DHT22;4872;48.316;10.650;2023-04-30T13:45:03;19.50;80.10
9668;DHT22;4872;48.316;10.650;2023-04-30T13:47:30;19.80;79.60
9668;DHT22;4872;48.316;10.650;2023-04-30T13:49:57;20.20;78.80
9668;DHT22;4872;48.316;10.650;2023-04-30T13:52:24;20.50;78.50
9668;DHT22;4872;48.316;10.650;2023-04-30T13:54:52;20.70;76.80
9668;DHT22;4872;48.316;10.650;2023-04-30T13:57:19;20.80;77.60
9668;DHT22;4872;48.316;10.650;2023-04-30T13:59:45;21.00;76.70
9668;DHT22;4872;48.316;10.650;2023-04-30T14:02:13;21.20;75.80
9668;DHT22;4872;48.316;10.650;2023-04-30T14:04:40;21.30;76.20
9668;DHT22;4872;48.316;10.650;2023-04-30T14:07:07;21.30;75.00
9668;DHT22;4872;48.316;10.650;2023-04-30T14:09:34;21.40;75.60
9668;DHT22;4872;48.316;10.650;2023-04-30T14:12:02;21.50;75.10
9668;DHT22;4872;48.316;10.650;2023-04-30T14:14:29;21.40;72.80
9668;DHT22;4872;48.316;10.650;2023-04-30T14:16:56;21.30;72.20
9668;DHT22;4872;48.316;10.650;2023-04-30T14:19:23;21.30;73.00
9668;DHT22;4872;48.316;10.650;2023-04-30T14:21:49;21.20;72.60
9668;DHT22;4872;48.316;10.650;2023-04-30T14:24:16;21.00;71.20
9668;DHT22;4872;48.316;10.650;2023-04-30T14:26:44;20.60;70.90
9668;DHT22;4872;48.316;10.650;2023-04-30T14:29:12;20.00;70.20
9668;DHT22;4872;48.316;10.650;2023-04-30T14:31:39;19.60;70.20
9668;DHT22;4872;48.316;10.650;2023-04-30T14:34:06;19.30;70.90
9668;DHT22;4872;48.316;10.650;2023-04-30T14:36:33;19.00;72.00
9668;DHT22;4872;48.316;10.650;2023-04-30T14:39:00;19.20;73.50
9668;DHT22;4872;48.316;10.650;2023-04-30T14:41:33;19.20;74.10
9668;DHT22;4872;48.316;10.650;2023-04-30T14:44:00;19.10;75.60
9668;DHT22;4872;48.316;10.650;2023-04-30T14:46:28;19.10;74.80
9668;DHT22;4872;48.316;10.650;2023-04-30T14:48:55;19.10;75.40
9668;DHT22;4872;48.316;10.650;2023-04-30T14:51:22;19.10;75.30
9668;DHT22;4872;48.316;10.650;2023-04-30T14:53:48;19.00;74.30
9668;DHT22;4872;48.316;10.650;2023-04-30T14:56:15;18.90;73.80
9668;DHT22;4872;48.316;10.650;2023-04-30T14:58:42;18.70;73.70
9668;DHT22;4872;48.316;10.650;2023-04-30T15:01:09;18.60;74.00
9668;DHT22;4872;48.316;10.650;2023-04-30T15:03:37;18.50;72.90
9668;DHT22;4872;48.316;10.650;2023-04-30T15:06:04;18.50;73.90
9668;DHT22;4872;48.316;10.650;2023-04-30T15:08:31;18.60;75.20
9668;DHT22;4872;48.316;10.650;2023-04-30T15:10:58;18.70;74.90
9668;DHT22;4872;48.316;10.650;2023-04-30T15:13:25;18.70;75.40
9668;DHT22;4872;48.316;10.650;2023-04-30T15:15:52;18.60;74.40
9668;DHT22;4872;48.316;10.650;2023-04-30T15:18:18;18.60;74.80
9668;DHT22;4872;48.316;10.650;2023-04-30T15:20:46;18.60;75.80
9668;DHT22;4872;48.316;10.650;2023-04-30T15:23:13;18.70;74.80
9668;DHT22;4872;48.316;10.650;2023-04-30T15:25:40;18.70;75.60
9668;DHT22;4872;48.316;10.650;2023-04-30T15:28:08;18.80;74.90
9668;DHT22;4872;48.316;10.650;2023-04-30T15:30:35;19.00;75.10
9668;DHT22;4872;48.316;10.650;2023-04-30T15:33:03;19.20;75.30
9668;DHT22;4872;48.316;10.650;2023-04-30T15:35:29;19.30;74.80
9668;DHT22;4872;48.316;10.650;2023-04-30T15:37:57;19.40;76.40
9668;DHT22;4872;48.316;10.650;2023-04-30T15:40:24;19.50;75.00
9668;DHT22;4872;48.316;10.650;2023-04-30T15:42:51;19.60;73.40
9668;DHT22;4872;48.316;10.650;2023-04-30T15:45:18;19.70;73.70
9668;DHT22;4872;48.316;10.650;2023-04-30T15:47:45;19.70;72.30
9668;DHT22;4872;48.316;10.650;2023-04-30T15:50:12;19.50;72.90
9668;DHT22;4872;48.316;10.650;2023-04-30T15:52:39;19.50;72.20
9668;DHT22;4872;48.316;10.650;2023-04-30T15:55:08;19.30;72.60
9668;DHT22;4872;48.316;10.650;2023-04-30T15:57:35;19.20;72.30
9668;DHT22;4872;48.316;10.650;2023-04-30T16:00:01;19.20;73.30
9668;DHT22;4872;48.316;10.650;2023-04-30T16:02:29;19.30;73.10
9668;DHT22;4872;48.316;10.650;2023-04-30T16:04:56;19.50;72.80
9668;DHT22;4872;48.316;10.650;2023-04-30T16:07:23;19.70;72.30
9668;DHT22;4872;48.316;10.650;2023-04-30T16:09:50;19.80;72.10
9668;DHT22;4872;48.316;10.650;2023-04-30T16:12:18;19.90;72.60
9668;DHT22;4872;48.316;10.650;2023-04-30T16:14:45;19.90;72.60
9668;DHT22;4872;48.316;10.650;2023-04-30T16:17:12;19.90;72.30
9668;DHT22;4872;48.316;10.650;2023-04-30T16:19:39;19.60;70.70
9668;DHT22;4872;48.316;10.650;2023-04-30T16:22:06;19.40;70.80
9668;DHT22;4872;48.316;10.650;2023-04-30T16:24:33;19.10;71.60
9668;DHT22;4872;48.316;10.650;2023-04-30T16:27:01;19.00;72.40
9668;DHT22;4872;48.316;10.650;2023-04-30T16:29:29;19.10;72.80
9668;DHT22;4872;48.316;10.650;2023-04-30T16:31:56;19.20;72.40
9668;DHT22;4872;48.316;10.650;2023-04-30T16:34:23;19.20;71.70
9668;DHT22;4872;48.316;10.650;2023-04-30T16:36:50;19.10;71.90
9668;DHT22;4872;48.316;10.650;2023-04-30T16:39:17;19.00;71.60
9668;DHT22;4872;48.316;10.650;2023-04-30T16:41:44;18.90;71.20
9668;DHT22;4872;48.316;10.650;2023-04-30T16:44:11;18.60;71.10
9668;DHT22;4872;48.316;10.650;2023-04-30T16:46:39;18.30;72.70
9668;DHT22;4872;48.316;10.650;2023-04-30T16:49:06;18.20;73.70
9668;DHT22;4872;48.316;10.650;2023-04-30T16:51:33;18.10;73.20
9668;DHT22;4872;48.316;10.650;2023-04-30T16:54:00;17.90;73.80
9668;DHT22;4872;48.316;10.650;2023-04-30T16:56:27;17.80;74.10
9668;DHT22;4872;48.316;10.650;2023-04-30T16:58:54;17.60;74.20
9668;DHT22;4872;48.316;10.650;2023-04-30T17:01:20;17.40;73.60
9668;DHT22;4872;48.316;10.650;2023-04-30T17:03:49;17.10;73.40
9668;DHT22;4872;48.316;10.650;2023-04-30T17:06:16;16.90;73.90
9668;DHT22;4872;48.316;10.650;2023-04-30T17:08:43;16.70;74.30
9668;DHT22;4872;48.316;10.650;2023-04-30T17:11:09;16.50;74.20
9668;DHT22;4872;48.316;10.650;2023-04-30T17:13:36;16.30;74.20
9668;DHT22;4872;48.316;10.650;2023-04-30T17:16:03;16.20;74.50
9668;DHT22;4872;48.316;10.650;2023-04-30T17:18:31;16.10;74.80
9668;DHT22;4872;48.316;10.650;2023-04-30T17:20:59;16.00;75.40
9668;DHT22;4872;48.316;10.650;2023-04-30T17:23:26;15.90;74.80
9668;DHT22;4872;48.316;10.650;2023-04-30T17:25:53;16.20;75.80
9668;DHT22;4872;48.316;10.650;2023-04-30T17:28:20;15.70;75.50
9668;DHT22;4872;48.316;10.650;2023-04-30T17:30:47;15.70;76.20
9668;DHT22;4872;48.316;10.650;2023-04-30T17:33:14;15.70;76.20
9668;DHT22;4872;48.316;10.650;2023-04-30T17:35:41;15.50;77.10
9668;DHT22;4872;48.316;10.650;2023-04-30T17:38:09;15.60;77.30
9668;DHT22;4872;48.316;10.650;2023-04-30T17:40:36;15.50;77.50
9668;DHT22;4872;48.316;10.650;2023-04-30T17:43:02;15.40;77.40
9668;DHT22;4872;48.316;10.650;2023-04-30T17:45:29;15.50;77.80
9668;DHT22;4872;48.316;10.650;2023-04-30T17:47:56;15.50;76.70
9668;DHT22;4872;48.316;10.650;2023-04-30T17:50:23;15.40;76.40
9668;DHT22;4872;48.316;10.650;2023-04-30T17:52:50;15.30;76.30
9668;DHT22;4872;48.316;10.650;2023-04-30T17:55:18;15.40;77.10
9668;DHT22;4872;48.316;10.650;2023-04-30T17:57:46;15.20;77.10
9668;DHT22;4872;48.316;10.650;2023-04-30T18:00:13;15.20;77.50
9668;DHT22;4872;48.316;10.650;2023-04-30T18:02:41;15.10;77.70
9668;DHT22;4872;48.316;10.650;2023-04-30T18:05:08;15.00;77.70
9668;DHT22;4872;48.316;10.650;2023-04-30T18:07:36;15.40;78.00
9668;DHT22;4872;48.316;10.650;2023-04-30T18:10:03;14.90;77.60
9668;DHT22;4872;48.316;10.650;2023-04-30T18:12:31;14.90;77.80
9668;DHT22;4872;48.316;10.650;2023-04-30T18:14:58;14.80;77.90
9668;DHT22;4872;48.316;10.650;2023-04-30T18:17:25;14.70;77.80
9668;DHT22;4872;48.316;10.650;2023-04-30T18:19:51;14.60;78.50
9668;DHT22;4872;48.316;10.650;2023-04-30T18:22:18;14.90;79.20
9668;DHT22;4872;48.316;10.650;2023-04-30T18:24:45;14.40;78.80
9668;DHT22;4872;48.316;10.650;2023-04-30T18:27:12;14.30;79.60
9668;DHT22;4872;48.316;10.650;2023-04-30T18:29:40;14.30;79.60
9668;DHT22;4872;48.316;10.650;2023-04-30T18:32:07;14.30;79.50
9668;DHT22;4872;48.316;10.650;2023-04-30T18:34:34;14.70;80.30
9668;DHT22;4872;48.316;10.650;2023-04-30T18:37:02;13.90;79.70
9668;DHT22;4872;48.316;10.650;2023-04-30T18:39:29;13.80;80.10
9668;DHT22;4872;48.316;10.650;2023-04-30T18:41:56;13.80;80.70
9668;DHT22;4872;48.316;10.650;2023-04-30T18:44:27;13.80;80.70
9668;DHT22;4872;48.316;10.650;2023-04-30T18:46:56;13.80;80.80
9668;DHT22;4872;48.316;10.650;2023-04-30T18:49:23;13.70;81.10
9668;DHT22;4872;48.316;10.650;2023-04-30T18:51:50;13.50;80.90
9668;DHT22;4872;48.316;10.650;2023-04-30T18:54:19;13.50;80.90
9668;DHT22;4872;48.316;10.650;2023-04-30T18:56:46;13.40;80.80
9668;DHT22;4872;48.316;10.650;2023-04-30T18:59:12;13.30;80.90
9668;DHT22;4872;48.316;10.650;2023-04-30T19:01:40;13.80;81.60
9668;DHT22;4872;48.316;10.650;2023-04-30T19:04:08;13.70;81.80
9668;DHT22;4872;48.316;10.650;2023-04-30T19:06:40;13.20;81.40
9668;DHT22;4872;48.316;10.650;2023-04-30T19:09:07;13.10;81.50
9668;DHT22;4872;48.316;10.650;2023-04-30T19:11:34;13.00;81.50
9668;DHT22;4872;48.316;10.650;2023-04-30T19:14:01;13.00;81.90
9668;DHT22;4872;48.316;10.650;2023-04-30T19:16:28;13.00;81.80
9668;DHT22;4872;48.316;10.650;2023-04-30T19:18:56;13.00;81.80
9668;DHT22;4872;48.316;10.650;2023-04-30T19:21:24;12.90;81.90
9668;DHT22;4872;48.316;10.650;2023-04-30T19:23:53;12.90;81.90
9668;DHT22;4872;48.316;10.650;2023-04-30T19:26:21;12.90;82.20
9668;DHT22;4872;48.316;10.650;2023-04-30T19:28:49;12.80;82.50
9668;DHT22;4872;48.316;10.650;2023-04-30T19:31:16;12.80;82.50
9668;DHT22;4872;48.316;10.650;2023-04-30T19:33:43;12.90;82.20
9668;DHT22;4872;48.316;10.650;2023-04-30T19:36:10;12.90;82.00
9668;DHT22;4872;48.316;10.650;2023-04-30T19:38:38;12.70;81.80
9668;DHT22;4872;48.316;10.650;2023-04-30T19:41:05;12.60;81.80
9668;DHT22;4872;48.316;10.650;2023-04-30T19:43:32;12.70;82.30
9668;DHT22;4872;48.316;10.650;2023-04-30T19:45:59;12.70;82.40
9668;DHT22;4872;48.316;10.650;2023-04-30T19:48:26;12.60;81.90
9668;DHT22;4872;48.316;10.650;2023-04-30T19:50:53;12.60;82.20
9668;DHT22;4872;48.316;10.650;2023-04-30T19:53:20;13.50;83.10